Observations for Trim Market St
| Time | AQI | Temp °C | Hum % | Pres Pa | CO μg/m³ | H₂S μg/m³ | NO μg/m³ | NO₂ μg/m³ | O₃ μg/m³ | SO₂ μg/m³ | PM1 μg/m³ | PM2.5 μg/m³ | PM10 μg/m³ |
|---|---|---|---|---|---|---|---|---|---|---|---|---|---|
| Tuesday 11 August 2026 | |||||||||||||
| 16:44 | 3 | 42.6 | 16 | 67,377 | 0 | 0 | 0 | 14.96 | 84.56 | 8.48 | 0.71 | 4.46 | 4.91 |
| 16:43 | 3 | 42.7 | 16 | 67,384 | 0 | 0.07 | 0 | 14.95 | 103.96 | 9.36 | 0 | 3.9 | 4.29 |
| 16:42 | 3 | 42.7 | 16 | 67,398 | 0 | 0 | 0 | 16.1 | 76.02 | 7.75 | 0 | 3.91 | 4.3 |
| 16:41 | 3 | 42.8 | 16 | 67,384 | 0 | 0 | 0 | 15.02 | 81.41 | 8.12 | 0 | 3.35 | 3.68 |
| 16:40 | 3 | 42.9 | 16 | 67,398 | 0 | 0 | 0 | 15.01 | 90.99 | 9.21 | 0 | 3.91 | 4.31 |
| 16:39 | 3 | 42.9 | 16 | 67,412 | 0 | 0 | 0 | 15.01 | 85.57 | 8.07 | 0.71 | 4.48 | 4.93 |
| 16:38 | 3 | 43 | 16 | 67,422 | 0 | 0 | 0 | 15.04 | 89.47 | 8 | 0.71 | 4.48 | 4.93 |
| 16:37 | 3 | 43 | 16 | 67,404 | 0 | 0 | 0 | 15.02 | 81.39 | 7.62 | 0 | 4.48 | 4.93 |
| 16:36 | 3 | 43 | 16 | 67,412 | 0 | 0 | 0 | 19.11 | 58.48 | 5.66 | 0 | 3.91 | 4.31 |
| 16:34 | 3 | 43 | 16 | 67,430 | 0 | 0 | 0 | 17.21 | 75.25 | 7.03 | 0.71 | 4.48 | 4.93 |
| 16:32 | 3 | 42.9 | 16 | 67,418 | 0 | 0 | 0 | 15.19 | 75.2 | 8.95 | 0 | 4.48 | 4.93 |
| 16:31 | 3 | 42.9 | 16 | 67,406 | 0.1 | 0 | 0 | 15.13 | 85.37 | 8.63 | 0 | 3.92 | 4.32 |
| 16:29 | 3 | 42.9 | 16 | 67,386 | 0 | 0 | 0 | 15.06 | 78.58 | 7.84 | 0 | 3.92 | 4.31 |
| 16:27 | 3 | 42.8 | 16 | 67,369 | 0 | 0 | 0 | 18.66 | 74.13 | 6.32 | 0 | 3.36 | 3.7 |
| 16:19 | 3 | 42.6 | 16 | 67,345 | 0 | 0 | 0 | 15.95 | 82.25 | 6.9 | 0.71 | 3.91 | 4.3 |
| 16:17 | 3 | 42.5 | 16 | 67,339 | 0 | 0 | 0 | 29.01 | 44.72 | 3.85 | 0 | 3.35 | 3.68 |
| 16:16 | 3 | 42.5 | 16 | 67,333 | 0 | 0 | 0 | 21.32 | 87.92 | 5.93 | 0 | 3.91 | 4.3 |
| 16:14 | 3 | 42.4 | 16 | 67,288 | 0 | 0 | 0 | 14.96 | 82.34 | 8.1 | 0.71 | 3.89 | 4.28 |
| 16:12 | 3 | 42.3 | 16 | 67,318 | 0 | 0 | 0 | 13.75 | 63.97 | 9.42 | 0 | 3.89 | 4.28 |
| 16:08 | 3 | 42.3 | 16 | 67,308 | 0 | 5.17 | 0 | 15.09 | 93.44 | 8.34 | 0.71 | 3.9 | 4.29 |